sensor_id;sensor_type;location;lat;lon;timestamp;pressure;altitude;pressure_sealevel;temperature;humidity
9077;BME280;4574;51.072;17.174;2023-02-02T00:01:37;99386.16;;;3.99;100.00
9077;BME280;4574;51.072;17.174;2023-02-02T00:04:07;99371.25;;;4.00;100.00
9077;BME280;4574;51.072;17.174;2023-02-02T00:06:36;99377.34;;;4.00;100.00
9077;BME280;4574;51.072;17.174;2023-02-02T00:09:05;99379.25;;;3.98;100.00
9077;BME280;4574;51.072;17.174;2023-02-02T00:11:34;99385.28;;;3.99;100.00
9077;BME280;4574;51.072;17.174;2023-02-02T00:14:02;99376.75;;;3.97;100.00
9077;BME280;4574;51.072;17.174;2023-02-02T00:16:39;99392.44;;;3.97;100.00
9077;BME280;4574;51.072;17.174;2023-02-02T00:19:11;99396.63;;;3.99;100.00
9077;BME280;4574;51.072;17.174;2023-02-02T00:21:40;99387.81;;;4.00;100.00
9077;BME280;4574;51.072;17.174;2023-02-02T00:24:10;99379.69;;;4.03;100.00
9077;BME280;4574;51.072;17.174;2023-02-02T00:26:40;99391.25;;;4.01;100.00
9077;BME280;4574;51.072;17.174;2023-02-02T00:29:14;99386.84;;;4.01;100.00
9077;BME280;4574;51.072;17.174;2023-02-02T00:31:43;99399.94;;;4.01;100.00
9077;BME280;4574;51.072;17.174;2023-02-02T00:34:14;99398.03;;;4.03;100.00
9077;BME280;4574;51.072;17.174;2023-02-02T00:36:43;99406.00;;;4.02;100.00
9077;BME280;4574;51.072;17.174;2023-02-02T00:39:14;99396.38;;;4.02;100.00
9077;BME280;4574;51.072;17.174;2023-02-02T00:41:44;99415.41;;;4.04;100.00
9077;BME280;4574;51.072;17.174;2023-02-02T00:44:13;99403.97;;;4.05;100.00
9077;BME280;4574;51.072;17.174;2023-02-02T00:46:59;99411.13;;;4.03;100.00
9077;BME280;4574;51.072;17.174;2023-02-02T00:49:30;99415.50;;;4.03;100.00
9077;BME280;4574;51.072;17.174;2023-02-02T00:51:58;99410.41;;;4.01;100.00
9077;BME280;4574;51.072;17.174;2023-02-02T00:54:28;99403.81;;;4.07;100.00
9077;BME280;4574;51.072;17.174;2023-02-02T00:56:57;99403.00;;;4.06;100.00
9077;BME280;4574;51.072;17.174;2023-02-02T00:59:25;99422.03;;;4.08;100.00
9077;BME280;4574;51.072;17.174;2023-02-02T01:01:56;99415.72;;;4.11;100.00
9077;BME280;4574;51.072;17.174;2023-02-02T01:04:25;99409.75;;;4.09;100.00
9077;BME280;4574;51.072;17.174;2023-02-02T01:06:55;99407.28;;;4.07;100.00
9077;BME280;4574;51.072;17.174;2023-02-02T01:09:23;99396.56;;;4.10;100.00
9077;BME280;4574;51.072;17.174;2023-02-02T01:11:52;99405.38;;;4.09;100.00
9077;BME280;4574;51.072;17.174;2023-02-02T01:14:20;99409.41;;;4.13;100.00
9077;BME280;4574;51.072;17.174;2023-02-02T01:16:49;99404.41;;;4.10;100.00
9077;BME280;4574;51.072;17.174;2023-02-02T01:19:17;99404.16;;;4.13;100.00
9077;BME280;4574;51.072;17.174;2023-02-02T01:21:46;99418.22;;;4.12;100.00
9077;BME280;4574;51.072;17.174;2023-02-02T01:24:16;99398.47;;;4.08;100.00
9077;BME280;4574;51.072;17.174;2023-02-02T01:26:44;99407.50;;;4.15;100.00
9077;BME280;4574;51.072;17.174;2023-02-02T01:29:13;99420.44;;;4.17;100.00
9077;BME280;4574;51.072;17.174;2023-02-02T01:31:41;99416.63;;;4.21;100.00
9077;BME280;4574;51.072;17.174;2023-02-02T01:34:10;99408.31;;;4.16;100.00
9077;BME280;4574;51.072;17.174;2023-02-02T01:36:39;99415.66;;;4.22;100.00
9077;BME280;4574;51.072;17.174;2023-02-02T01:39:07;99415.53;;;4.23;100.00
9077;BME280;4574;51.072;17.174;2023-02-02T01:41:39;99414.69;;;4.23;100.00
9077;BME280;4574;51.072;17.174;2023-02-02T01:47:09;99418.03;;;4.25;100.00
9077;BME280;4574;51.072;17.174;2023-02-02T01:49:39;99398.53;;;4.18;100.00
9077;BME280;4574;51.072;17.174;2023-02-02T01:52:09;99407.69;;;4.23;100.00
9077;BME280;4574;51.072;17.174;2023-02-02T01:54:42;99390.16;;;4.24;100.00
9077;BME280;4574;51.072;17.174;2023-02-02T01:57:16;99399.56;;;4.26;100.00
9077;BME280;4574;51.072;17.174;2023-02-02T01:59:48;99410.06;;;4.26;100.00
9077;BME280;4574;51.072;17.174;2023-02-02T02:02:19;99409.94;;;4.28;100.00
9077;BME280;4574;51.072;17.174;2023-02-02T02:04:49;99394.34;;;4.26;100.00
9077;BME280;4574;51.072;17.174;2023-02-02T02:07:18;99406.22;;;4.30;100.00
9077;BME280;4574;51.072;17.174;2023-02-02T02:09:47;99396.44;;;4.32;100.00
9077;BME280;4574;51.072;17.174;2023-02-02T02:12:17;99392.75;;;4.35;100.00
9077;BME280;4574;51.072;17.174;2023-02-02T02:14:47;99410.00;;;4.37;100.00
9077;BME280;4574;51.072;17.174;2023-02-02T02:17:47;99401.06;;;4.40;100.00
9077;BME280;4574;51.072;17.174;2023-02-02T02:20:34;99413.19;;;4.41;100.00
9077;BME280;4574;51.072;17.174;2023-02-02T02:23:49;99400.81;;;4.43;100.00
9077;BME280;4574;51.072;17.174;2023-02-02T02:26:59;99403.53;;;4.41;100.00
9077;BME280;4574;51.072;17.174;2023-02-02T02:29:51;99395.56;;;4.43;100.00
9077;BME280;4574;51.072;17.174;2023-02-02T02:32:33;99400.91;;;4.41;100.00
9077;BME280;4574;51.072;17.174;2023-02-02T02:35:11;99397.34;;;4.42;100.00
9077;BME280;4574;51.072;17.174;2023-02-02T02:37:46;99395.56;;;4.43;100.00
9077;BME280;4574;51.072;17.174;2023-02-02T02:40:23;99407.69;;;4.44;100.00
9077;BME280;4574;51.072;17.174;2023-02-02T02:42:57;99405.53;;;4.49;100.00
9077;BME280;4574;51.072;17.174;2023-02-02T02:45:27;99407.03;;;4.51;100.00
9077;BME280;4574;51.072;17.174;2023-02-02T02:47:58;99387.97;;;4.40;100.00
9077;BME280;4574;51.072;17.174;2023-02-02T02:50:29;99394.47;;;4.45;100.00
9077;BME280;4574;51.072;17.174;2023-02-02T02:53:04;99408.97;;;4.49;100.00
9077;BME280;4574;51.072;17.174;2023-02-02T02:55:41;99400.84;;;4.52;100.00
9077;BME280;4574;51.072;17.174;2023-02-02T02:58:18;99395.34;;;4.55;100.00
9077;BME280;4574;51.072;17.174;2023-02-02T03:01:01;99399.19;;;4.51;100.00
9077;BME280;4574;51.072;17.174;2023-02-02T03:06:36;99388.19;;;4.57;100.00
9077;BME280;4574;51.072;17.174;2023-02-02T03:09:11;99374.28;;;4.57;100.00
9077;BME280;4574;51.072;17.174;2023-02-02T03:11:42;99388.63;;;4.62;100.00
9077;BME280;4574;51.072;17.174;2023-02-02T03:14:11;99382.69;;;4.60;100.00
9077;BME280;4574;51.072;17.174;2023-02-02T03:16:41;99383.53;;;4.61;100.00
9077;BME280;4574;51.072;17.174;2023-02-02T03:19:09;99380.75;;;4.62;100.00
9077;BME280;4574;51.072;17.174;2023-02-02T03:21:39;99361.97;;;4.57;100.00
9077;BME280;4574;51.072;17.174;2023-02-02T03:24:08;99392.91;;;4.63;100.00
9077;BME280;4574;51.072;17.174;2023-02-02T03:26:36;99357.63;;;4.67;100.00
9077;BME280;4574;51.072;17.174;2023-02-02T03:29:05;99355.69;;;4.69;100.00
9077;BME280;4574;51.072;17.174;2023-02-02T03:31:34;99344.41;;;4.69;100.00
9077;BME280;4574;51.072;17.174;2023-02-02T03:34:04;99347.84;;;4.69;100.00
9077;BME280;4574;51.072;17.174;2023-02-02T03:36:38;99314.03;;;4.66;100.00
9077;BME280;4574;51.072;17.174;2023-02-02T03:39:07;99307.97;;;4.66;100.00
9077;BME280;4574;51.072;17.174;2023-02-02T03:41:36;99319.16;;;4.77;100.00
9077;BME280;4574;51.072;17.174;2023-02-02T03:44:05;99334.19;;;4.75;100.00
9077;BME280;4574;51.072;17.174;2023-02-02T03:46:33;99328.84;;;4.77;100.00
9077;BME280;4574;51.072;17.174;2023-02-02T03:49:03;99325.38;;;4.76;100.00
9077;BME280;4574;51.072;17.174;2023-02-02T03:51:33;99319.31;;;4.76;100.00
9077;BME280;4574;51.072;17.174;2023-02-02T03:54:04;99314.88;;;4.76;100.00
9077;BME280;4574;51.072;17.174;2023-02-02T03:56:33;99311.31;;;4.77;100.00
9077;BME280;4574;51.072;17.174;2023-02-02T03:59:02;99316.53;;;4.77;100.00
9077;BME280;4574;51.072;17.174;2023-02-02T04:01:30;99305.63;;;4.72;100.00
9077;BME280;4574;51.072;17.174;2023-02-02T04:03:59;99306.31;;;4.74;100.00
9077;BME280;4574;51.072;17.174;2023-02-02T04:06:28;99306.06;;;4.77;100.00
9077;BME280;4574;51.072;17.174;2023-02-02T04:08:56;99292.25;;;4.75;100.00
9077;BME280;4574;51.072;17.174;2023-02-02T04:11:26;99308.00;;;4.75;100.00
9077;BME280;4574;51.072;17.174;2023-02-02T04:13:56;99300.56;;;4.80;100.00
9077;BME280;4574;51.072;17.174;2023-02-02T04:16:25;99310.78;;;4.83;100.00
9077;BME280;4574;51.072;17.174;2023-02-02T04:18:53;99303.59;;;4.85;100.00
9077;BME280;4574;51.072;17.174;2023-02-02T04:21:22;99298.09;;;4.88;100.00
9077;BME280;4574;51.072;17.174;2023-02-02T04:23:50;99304.88;;;4.91;100.00
9077;BME280;4574;51.072;17.174;2023-02-02T04:26:20;99303.91;;;4.92;100.00
9077;BME280;4574;51.072;17.174;2023-02-02T04:28:53;99296.16;;;4.90;100.00
9077;BME280;4574;51.072;17.174;2023-02-02T04:31:22;99284.59;;;4.93;100.00
9077;BME280;4574;51.072;17.174;2023-02-02T04:33:51;99292.31;;;4.94;100.00
9077;BME280;4574;51.072;17.174;2023-02-02T04:36:20;99297.81;;;4.91;100.00
9077;BME280;4574;51.072;17.174;2023-02-02T04:38:52;99297.00;;;4.91;100.00
9077;BME280;4574;51.072;17.174;2023-02-02T04:41:22;99290.66;;;4.93;100.00
9077;BME280;4574;51.072;17.174;2023-02-02T04:43:52;99312.06;;;4.98;100.00
9077;BME280;4574;51.072;17.174;2023-02-02T04:46:21;99295.50;;;4.98;100.00
9077;BME280;4574;51.072;17.174;2023-02-02T04:48:50;99307.41;;;5.02;100.00
9077;BME280;4574;51.072;17.174;2023-02-02T04:51:18;99303.66;;;5.04;100.00
9077;BME280;4574;51.072;17.174;2023-02-02T04:53:47;99275.06;;;5.01;100.00
9077;BME280;4574;51.072;17.174;2023-02-02T04:56:17;99302.84;;;5.04;100.00
9077;BME280;4574;51.072;17.174;2023-02-02T04:58:46;99296.50;;;5.06;100.00
9077;BME280;4574;51.072;17.174;2023-02-02T05:01:18;99278.00;;;5.08;100.00
9077;BME280;4574;51.072;17.174;2023-02-02T05:03:47;99294.31;;;5.11;100.00
9077;BME280;4574;51.072;17.174;2023-02-02T05:06:17;99274.16;;;5.12;100.00
9077;BME280;4574;51.072;17.174;2023-02-02T05:08:46;99291.94;;;5.08;100.00
9077;BME280;4574;51.072;17.174;2023-02-02T05:11:16;99259.63;;;4.98;100.00
9077;BME280;4574;51.072;17.174;2023-02-02T05:13:46;99278.81;;;4.99;100.00
9077;BME280;4574;51.072;17.174;2023-02-02T05:16:17;99286.00;;;5.06;100.00
9077;BME280;4574;51.072;17.174;2023-02-02T05:18:48;99283.81;;;5.11;100.00
9077;BME280;4574;51.072;17.174;2023-02-02T05:21:17;99312.78;;;5.10;100.00
9077;BME280;4574;51.072;17.174;2023-02-02T05:23:46;99286.97;;;5.05;100.00
9077;BME280;4574;51.072;17.174;2023-02-02T05:26:17;99291.53;;;5.13;100.00
9077;BME280;4574;51.072;17.174;2023-02-02T05:28:46;99287.69;;;5.17;100.00
9077;BME280;4574;51.072;17.174;2023-02-02T05:31:17;99291.84;;;5.19;100.00
9077;BME280;4574;51.072;17.174;2023-02-02T05:33:45;99298.75;;;5.20;100.00
9077;BME280;4574;51.072;17.174;2023-02-02T05:36:14;99312.56;;;5.22;100.00
9077;BME280;4574;51.072;17.174;2023-02-02T05:38:43;99284.41;;;5.24;100.00
9077;BME280;4574;51.072;17.174;2023-02-02T05:41:11;99295.16;;;5.21;100.00
9077;BME280;4574;51.072;17.174;2023-02-02T05:43:40;99296.56;;;5.25;100.00
9077;BME280;4574;51.072;17.174;2023-02-02T05:46:09;99293.94;;;5.25;100.00
9077;BME280;4574;51.072;17.174;2023-02-02T05:48:39;99307.84;;;5.25;100.00
9077;BME280;4574;51.072;17.174;2023-02-02T05:51:11;99293.66;;;5.28;100.00
9077;BME280;4574;51.072;17.174;2023-02-02T05:53:43;99295.44;;;5.18;100.00
9077;BME280;4574;51.072;17.174;2023-02-02T05:56:12;99322.91;;;5.23;100.00
9077;BME280;4574;51.072;17.174;2023-02-02T05:58:41;99294.91;;;5.24;100.00
9077;BME280;4574;51.072;17.174;2023-02-02T06:01:10;99310.91;;;5.21;100.00
9077;BME280;4574;51.072;17.174;2023-02-02T06:03:40;99303.44;;;5.17;100.00
9077;BME280;4574;51.072;17.174;2023-02-02T06:06:11;99323.59;;;5.16;100.00
9077;BME280;4574;51.072;17.174;2023-02-02T06:08:39;99324.97;;;5.20;100.00
9077;BME280;4574;51.072;17.174;2023-02-02T06:11:09;99324.72;;;5.23;100.00
9077;BME280;4574;51.072;17.174;2023-02-02T06:13:38;99316.00;;;5.13;100.00
9077;BME280;4574;51.072;17.174;2023-02-02T06:16:07;99326.06;;;5.18;100.00
9077;BME280;4574;51.072;17.174;2023-02-02T06:18:36;99318.03;;;5.10;100.00
9077;BME280;4574;51.072;17.174;2023-02-02T06:21:06;99316.25;;;5.10;100.00
9077;BME280;4574;51.072;17.174;2023-02-02T06:23:35;99323.69;;;5.05;100.00
9077;BME280;4574;51.072;17.174;2023-02-02T06:26:03;99331.03;;;5.11;100.00
9077;BME280;4574;51.072;17.174;2023-02-02T06:28:34;99344.97;;;5.12;100.00
9077;BME280;4574;51.072;17.174;2023-02-02T06:31:03;99354.19;;;5.06;100.00
9077;BME280;4574;51.072;17.174;2023-02-02T06:33:32;99351.13;;;5.01;100.00
9077;BME280;4574;51.072;17.174;2023-02-02T06:36:02;99360.91;;;4.99;100.00
9077;BME280;4574;51.072;17.174;2023-02-02T06:38:32;99356.03;;;4.85;100.00
9077;BME280;4574;51.072;17.174;2023-02-02T06:41:01;99382.84;;;4.89;100.00
9077;BME280;4574;51.072;17.174;2023-02-02T06:43:30;99370.09;;;4.84;100.00
9077;BME280;4574;51.072;17.174;2023-02-02T06:45:59;99373.69;;;4.83;100.00
9077;BME280;4574;51.072;17.174;2023-02-02T06:48:28;99364.56;;;4.78;100.00
9077;BME280;4574;51.072;17.174;2023-02-02T06:50:57;99386.94;;;4.82;100.00
9077;BME280;4574;51.072;17.174;2023-02-02T06:53:26;99380.41;;;4.76;100.00
9077;BME280;4574;51.072;17.174;2023-02-02T06:55:59;99405.41;;;4.80;100.00
9077;BME280;4574;51.072;17.174;2023-02-02T06:58:29;99402.69;;;4.82;100.00
9077;BME280;4574;51.072;17.174;2023-02-02T07:01:00;99399.63;;;4.77;100.00
9077;BME280;4574;51.072;17.174;2023-02-02T07:03:32;99400.44;;;4.77;100.00
9077;BME280;4574;51.072;17.174;2023-02-02T07:06:10;99389.38;;;4.74;100.00
9077;BME280;4574;51.072;17.174;2023-02-02T07:08:39;99419.38;;;4.81;100.00
9077;BME280;4574;51.072;17.174;2023-02-02T07:11:10;99388.28;;;4.76;100.00
9077;BME280;4574;51.072;17.174;2023-02-02T07:13:43;99401.84;;;4.81;100.00
9077;BME280;4574;51.072;17.174;2023-02-02T07:16:11;99412.75;;;4.86;100.00
9077;BME280;4574;51.072;17.174;2023-02-02T07:18:41;99423.13;;;4.88;100.00
9077;BME280;4574;51.072;17.174;2023-02-02T07:21:16;99429.88;;;4.90;100.00
9077;BME280;4574;51.072;17.174;2023-02-02T07:23:44;99435.00;;;4.92;100.00
9077;BME280;4574;51.072;17.174;2023-02-02T07:26:17;99428.09;;;4.91;100.00
9077;BME280;4574;51.072;17.174;2023-02-02T07:28:47;99440.81;;;4.95;100.00
9077;BME280;4574;51.072;17.174;2023-02-02T07:31:17;99435.47;;;4.97;100.00
9077;BME280;4574;51.072;17.174;2023-02-02T07:33:47;99438.06;;;4.97;100.00
9077;BME280;4574;51.072;17.174;2023-02-02T07:36:18;99442.22;;;4.99;100.00
9077;BME280;4574;51.072;17.174;2023-02-02T07:38:48;99447.19;;;5.02;100.00
9077;BME280;4574;51.072;17.174;2023-02-02T07:41:22;99446.94;;;5.05;100.00
9077;BME280;4574;51.072;17.174;2023-02-02T07:43:51;99434.50;;;4.98;100.00
9077;BME280;4574;51.072;17.174;2023-02-02T07:46:20;99455.06;;;5.02;100.00
9077;BME280;4574;51.072;17.174;2023-02-02T07:48:52;99453.28;;;5.03;100.00
9077;BME280;4574;51.072;17.174;2023-02-02T07:51:23;99454.63;;;4.97;100.00
9077;BME280;4574;51.072;17.174;2023-02-02T07:53:53;99460.00;;;4.96;100.00
9077;BME280;4574;51.072;17.174;2023-02-02T07:56:26;99473.69;;;4.99;100.00
9077;BME280;4574;51.072;17.174;2023-02-02T07:58:55;99458.91;;;4.98;100.00
9077;BME280;4574;51.072;17.174;2023-02-02T08:01:26;99477.00;;;5.01;100.00
9077;BME280;4574;51.072;17.174;2023-02-02T08:03:56;99476.75;;;5.04;100.00
9077;BME280;4574;51.072;17.174;2023-02-02T08:06:27;99472.19;;;5.06;100.00
9077;BME280;4574;51.072;17.174;2023-02-02T08:08:58;99479.31;;;5.15;100.00
9077;BME280;4574;51.072;17.174;2023-02-02T08:11:30;99473.53;;;5.21;100.00
9077;BME280;4574;51.072;17.174;2023-02-02T08:14:00;99497.84;;;5.23;100.00
9077;BME280;4574;51.072;17.174;2023-02-02T08:16:31;99489.84;;;5.24;100.00
9077;BME280;4574;51.072;17.174;2023-02-02T08:19:00;99515.38;;;5.22;100.00
9077;BME280;4574;51.072;17.174;2023-02-02T08:21:31;99506.16;;;5.28;100.00
9077;BME280;4574;51.072;17.174;2023-02-02T08:24:00;99504.25;;;5.30;100.00
9077;BME280;4574;51.072;17.174;2023-02-02T08:26:32;99510.31;;;5.30;100.00
9077;BME280;4574;51.072;17.174;2023-02-02T08:29:03;99521.38;;;5.34;100.00
9077;BME280;4574;51.072;17.174;2023-02-02T08:31:33;99516.84;;;5.36;100.00
9077;BME280;4574;51.072;17.174;2023-02-02T08:34:03;99518.50;;;5.37;100.00
9077;BME280;4574;51.072;17.174;2023-02-02T08:36:31;99527.88;;;5.39;100.00
9077;BME280;4574;51.072;17.174;2023-02-02T08:39:02;99547.66;;;5.43;100.00
9077;BME280;4574;51.072;17.174;2023-02-02T08:41:32;99542.66;;;5.40;100.00
9077;BME280;4574;51.072;17.174;2023-02-02T08:44:04;99560.06;;;5.41;100.00
9077;BME280;4574;51.072;17.174;2023-02-02T08:46:36;99559.25;;;5.41;100.00
9077;BME280;4574;51.072;17.174;2023-02-02T08:49:05;99562.25;;;5.36;100.00
9077;BME280;4574;51.072;17.174;2023-02-02T08:51:34;99573.88;;;5.34;100.00
9077;BME280;4574;51.072;17.174;2023-02-02T08:54:03;99566.50;;;5.28;100.00
9077;BME280;4574;51.072;17.174;2023-02-02T08:56:33;99568.00;;;5.21;100.00
9077;BME280;4574;51.072;17.174;2023-02-02T08:59:01;99558.19;;;5.23;100.00
9077;BME280;4574;51.072;17.174;2023-02-02T09:01:32;99588.66;;;5.35;100.00
9077;BME280;4574;51.072;17.174;2023-02-02T09:04:03;99581.22;;;5.40;100.00
9077;BME280;4574;51.072;17.174;2023-02-02T09:06:33;99587.88;;;5.44;100.00
9077;BME280;4574;51.072;17.174;2023-02-02T09:09:03;99588.03;;;5.52;100.00
9077;BME280;4574;51.072;17.174;2023-02-02T09:11:34;99596.63;;;5.54;100.00
9077;BME280;4574;51.072;17.174;2023-02-02T09:14:03;99605.56;;;5.51;100.00
9077;BME280;4574;51.072;17.174;2023-02-02T09:16:33;99609.59;;;5.55;100.00
9077;BME280;4574;51.072;17.174;2023-02-02T09:19:03;99614.16;;;5.53;100.00
9077;BME280;4574;51.072;17.174;2023-02-02T09:21:32;99608.69;;;5.36;100.00
9077;BME280;4574;51.072;17.174;2023-02-02T09:24:07;99629.44;;;5.08;100.00
9077;BME280;4574;51.072;17.174;2023-02-02T09:26:38;99638.69;;;4.91;100.00
9077;BME280;4574;51.072;17.174;2023-02-02T09:29:12;99623.03;;;4.69;100.00
9077;BME280;4574;51.072;17.174;2023-02-02T09:31:41;99633.09;;;4.53;100.00
9077;BME280;4574;51.072;17.174;2023-02-02T09:34:12;99667.78;;;4.57;100.00
9077;BME280;4574;51.072;17.174;2023-02-02T09:36:42;99656.94;;;4.50;100.00
9077;BME280;4574;51.072;17.174;2023-02-02T09:39:11;99662.41;;;4.47;100.00
9077;BME280;4574;51.072;17.174;2023-02-02T09:41:56;99659.34;;;4.42;100.00
9077;BME280;4574;51.072;17.174;2023-02-02T09:44:36;99666.25;;;4.43;100.00
9077;BME280;4574;51.072;17.174;2023-02-02T09:47:16;99667.19;;;4.42;100.00
9077;BME280;4574;51.072;17.174;2023-02-02T09:49:53;99674.72;;;4.47;100.00
9077;BME280;4574;51.072;17.174;2023-02-02T09:52:26;99654.13;;;4.31;100.00
9077;BME280;4574;51.072;17.174;2023-02-02T09:54:59;99679.25;;;4.34;100.00
9077;BME280;4574;51.072;17.174;2023-02-02T09:57:37;99679.25;;;4.34;100.00
9077;BME280;4574;51.072;17.174;2023-02-02T10:00:18;99686.97;;;4.35;100.00
9077;BME280;4574;51.072;17.174;2023-02-02T10:02:57;99679.47;;;4.42;100.00
9077;BME280;4574;51.072;17.174;2023-02-02T10:05:39;99681.63;;;4.48;100.00
9077;BME280;4574;51.072;17.174;2023-02-02T10:08:17;99681.63;;;4.48;100.00
9077;BME280;4574;51.072;17.174;2023-02-02T10:11:04;99694.44;;;4.62;100.00
9077;BME280;4574;51.072;17.174;2023-02-02T10:13:39;99700.75;;;4.59;100.00
9077;BME280;4574;51.072;17.174;2023-02-02T10:16:14;99691.13;;;4.60;100.00
9077;BME280;4574;51.072;17.174;2023-02-02T10:18:47;99694.34;;;4.52;100.00
9077;BME280;4574;51.072;17.174;2023-02-02T10:21:25;99698.28;;;4.58;100.00
9077;BME280;4574;51.072;17.174;2023-02-02T10:23:54;99698.84;;;4.61;100.00
9077;BME280;4574;51.072;17.174;2023-02-02T10:26:29;99711.22;;;4.70;100.00
9077;BME280;4574;51.072;17.174;2023-02-02T10:29:07;99704.41;;;4.79;100.00
9077;BME280;4574;51.072;17.174;2023-02-02T10:31:43;99695.94;;;4.75;100.00
9077;BME280;4574;51.072;17.174;2023-02-02T10:34:16;99708.03;;;4.67;100.00
9077;BME280;4574;51.072;17.174;2023-02-02T10:37:07;99715.25;;;4.74;100.00
9077;BME280;4574;51.072;17.174;2023-02-02T10:39:52;99697.00;;;4.84;100.00
9077;BME280;4574;51.072;17.174;2023-02-02T10:42:29;99696.13;;;4.94;100.00
9077;BME280;4574;51.072;17.174;2023-02-02T10:45:07;99723.53;;;5.01;100.00
9077;BME280;4574;51.072;17.174;2023-02-02T10:47:38;99710.63;;;5.20;100.00
9077;BME280;4574;51.072;17.174;2023-02-02T10:50:15;99721.56;;;5.25;100.00
9077;BME280;4574;51.072;17.174;2023-02-02T10:52:46;99734.34;;;5.19;100.00
9077;BME280;4574;51.072;17.174;2023-02-02T10:55:21;99745.22;;;5.14;100.00
9077;BME280;4574;51.072;17.174;2023-02-02T10:58:02;99754.00;;;5.24;100.00
9077;BME280;4574;51.072;17.174;2023-02-02T11:00:40;99738.38;;;5.22;100.00
9077;BME280;4574;51.072;17.174;2023-02-02T11:03:13;99764.22;;;5.38;100.00
9077;BME280;4574;51.072;17.174;2023-02-02T11:05:42;99763.25;;;5.39;100.00
9077;BME280;4574;51.072;17.174;2023-02-02T11:08:32;99751.28;;;5.46;100.00
9077;BME280;4574;51.072;17.174;2023-02-02T11:11:10;99762.84;;;5.43;100.00
9077;BME280;4574;51.072;17.174;2023-02-02T11:13:43;99775.03;;;5.44;100.00
9077;BME280;4574;51.072;17.174;2023-02-02T11:16:28;99780.38;;;5.54;100.00
9077;BME280;4574;51.072;17.174;2023-02-02T11:19:27;99773.44;;;5.53;100.00
9077;BME280;4574;51.072;17.174;2023-02-02T11:21:57;99779.59;;;5.63;100.00
9077;BME280;4574;51.072;17.174;2023-02-02T11:24:27;99778.13;;;5.70;100.00
9077;BME280;4574;51.072;17.174;2023-02-02T11:27:00;99786.69;;;5.83;100.00
9077;BME280;4574;51.072;17.174;2023-02-02T11:29:31;99800.03;;;5.91;100.00
9077;BME280;4574;51.072;17.174;2023-02-02T11:32:25;99798.88;;;5.84;100.00
9077;BME280;4574;51.072;17.174;2023-02-02T11:35:15;99799.69;;;5.84;100.00
9077;BME280;4574;51.072;17.174;2023-02-02T11:37:58;99811.28;;;5.82;100.00
9077;BME280;4574;51.072;17.174;2023-02-02T11:40:36;99804.44;;;5.90;100.00
9077;BME280;4574;51.072;17.174;2023-02-02T11:43:14;99806.94;;;5.92;100.00
9077;BME280;4574;51.072;17.174;2023-02-02T11:45:46;99796.00;;;6.07;100.00
9077;BME280;4574;51.072;17.174;2023-02-02T11:48:19;99802.66;;;6.11;100.00
9077;BME280;4574;51.072;17.174;2023-02-02T11:50:49;99808.22;;;6.18;100.00
9077;BME280;4574;51.072;17.174;2023-02-02T11:53:22;99810.16;;;6.16;100.00
9077;BME280;4574;51.072;17.174;2023-02-02T11:55:52;99811.56;;;6.20;100.00
9077;BME280;4574;51.072;17.174;2023-02-02T11:58:24;99816.28;;;6.26;100.00
9077;BME280;4574;51.072;17.174;2023-02-02T12:00:57;99810.41;;;6.33;100.00
9077;BME280;4574;51.072;17.174;2023-02-02T12:03:34;99822.50;;;6.45;100.00
9077;BME280;4574;51.072;17.174;2023-02-02T12:06:17;99826.53;;;6.29;100.00
9077;BME280;4574;51.072;17.174;2023-02-02T12:08:46;99818.47;;;6.21;100.00
9077;BME280;4574;51.072;17.174;2023-02-02T12:11:24;99830.19;;;6.17;100.00
9077;BME280;4574;51.072;17.174;2023-02-02T12:14:04;99833.34;;;6.11;100.00
9077;BME280;4574;51.072;17.174;2023-02-02T12:16:55;99842.38;;;6.18;100.00
9077;BME280;4574;51.072;17.174;2023-02-02T12:19:45;99831.41;;;6.13;100.00
9077;BME280;4574;51.072;17.174;2023-02-02T12:22:26;99837.06;;;6.08;100.00
9077;BME280;4574;51.072;17.174;2023-02-02T12:25:04;99844.13;;;6.08;100.00
9077;BME280;4574;51.072;17.174;2023-02-02T12:27:42;99851.34;;;5.95;100.00
9077;BME280;4574;51.072;17.174;2023-02-02T12:30:25;99845.28;;;5.83;100.00
9077;BME280;4574;51.072;17.174;2023-02-02T12:33:15;99852.34;;;5.83;100.00
9077;BME280;4574;51.072;17.174;2023-02-02T12:36:10;99855.94;;;5.71;100.00
9077;BME280;4574;51.072;17.174;2023-02-02T12:39:05;99863.69;;;5.72;100.00
9077;BME280;4574;51.072;17.174;2023-02-02T12:41:43;99864.09;;;5.68;100.00
9077;BME280;4574;51.072;17.174;2023-02-02T12:44:18;99870.16;;;5.68;100.00
9077;BME280;4574;51.072;17.174;2023-02-02T12:46:56;99875.53;;;5.67;100.00
9077;BME280;4574;51.072;17.174;2023-02-02T12:49:49;99882.25;;;5.60;100.00
9077;BME280;4574;51.072;17.174;2023-02-02T12:52:44;99895.88;;;5.54;100.00
9077;BME280;4574;51.072;17.174;2023-02-02T12:55:22;99900.91;;;5.46;100.00
9077;BME280;4574;51.072;17.174;2023-02-02T12:58:00;99900.44;;;5.41;100.00
9077;BME280;4574;51.072;17.174;2023-02-02T13:00:44;99904.28;;;5.26;100.00
9077;BME280;4574;51.072;17.174;2023-02-02T13:03:40;99908.56;;;5.16;100.00
9077;BME280;4574;51.072;17.174;2023-02-02T13:06:41;99912.00;;;5.17;100.00
9077;BME280;4574;51.072;17.174;2023-02-02T13:09:18;99902.84;;;5.11;100.00
9077;BME280;4574;51.072;17.174;2023-02-02T13:11:52;99912.50;;;5.11;100.00
9077;BME280;4574;51.072;17.174;2023-02-02T13:14:23;99908.44;;;5.07;100.00
9077;BME280;4574;51.072;17.174;2023-02-02T13:16:58;99909.25;;;5.07;100.00
9077;BME280;4574;51.072;17.174;2023-02-02T13:19:35;99913.09;;;5.14;100.00
9077;BME280;4574;51.072;17.174;2023-02-02T13:22:16;99922.66;;;5.15;100.00
9077;BME280;4574;51.072;17.174;2023-02-02T13:24:50;99916.44;;;5.16;100.00
9077;BME280;4574;51.072;17.174;2023-02-02T13:27:20;99938.38;;;5.15;100.00
9077;BME280;4574;51.072;17.174;2023-02-02T13:29:52;99936.81;;;5.13;100.00
9077;BME280;4574;51.072;17.174;2023-02-02T13:32:26;99933.38;;;5.12;100.00
9077;BME280;4574;51.072;17.174;2023-02-02T13:35:00;99938.25;;;5.17;100.00
9077;BME280;4574;51.072;17.174;2023-02-02T13:37:33;99934.56;;;5.19;100.00
9077;BME280;4574;51.072;17.174;2023-02-02T13:40:25;99943.97;;;5.22;100.00
9077;BME280;4574;51.072;17.174;2023-02-02T13:43:04;99947.94;;;5.16;100.00
9077;BME280;4574;51.072;17.174;2023-02-02T13:45:45;99965.34;;;5.17;100.00
9077;BME280;4574;51.072;17.174;2023-02-02T13:48:22;99965.53;;;4.92;100.00